Time;durP1;ratioP1;P1;durP2;ratioP2;P2;SDS_P1;SDS_P2;PMS_P1;PMS_P2;Temp;Humidity;BMP_temperature;BMP_pressure;BME280_temperature;BME280_humidity;BME280_pressure;Samples;Min_cycle;Max_cycle;Signal;HPM_P1;HPM_P2
2021/04/08 05:30:47;;;;;;;28.98;13.28;;;;;;;0.82;77.17;99734.58;1741035;78;27084;-53
2021/04/08 05:33:14;;;;;;;26.62;13.88;;;;;;;0.88;77.15;99736.73;1734826;81;25649;-56
2021/04/08 05:35:41;;;;;;;29.63;14.43;;;;;;;0.91;77.10;99740.22;1751310;80;25538;-55
2021/04/08 05:38:08;;;;;;;25.40;13.85;;;;;;;0.97;77.06;99749.03;1751800;81;25553;-56
2021/04/08 05:40:34;;;;;;;30.37;15.32;;;;;;;0.99;76.99;99749.05;1751242;81;25664;-54
2021/04/08 05:43:00;;;;;;;26.97;14.70;;;;;;;1.01;76.84;99744.80;1752042;81;25777;-55
2021/04/08 05:45:28;;;;;;;25.97;14.05;;;;;;;1.02;76.78;99746.39;1752056;81;25820;-55
2021/04/08 05:47:55;;;;;;;28.12;15.05;;;;;;;1.02;76.72;99756.53;1749057;80;25283;-56
2021/04/08 05:50:22;;;;;;;28.52;15.90;;;;;;;1.05;76.83;99757.86;1743020;82;25634;-54
2021/04/08 05:52:50;;;;;;;25.75;14.60;;;;;;;1.07;76.73;99757.89;1743330;82;25532;-56
2021/04/08 05:55:18;;;;;;;28.00;15.35;;;;;;;1.09;76.75;99755.77;1743585;82;25718;-56
2021/04/08 05:57:45;;;;;;;29.90;16.17;;;;;;;1.11;76.74;99764.30;1724561;82;25466;-55
2021/04/08 06:00:13;;;;;;;30.15;15.18;;;;;;;1.14;76.78;99762.16;1750759;81;26076;-55
2021/04/08 06:02:40;;;;;;;26.73;15.00;;;;;;;1.16;76.69;99770.19;1744691;80;25566;-56
2021/04/08 06:05:10;;;;;;;29.87;16.20;;;;;;;1.17;76.88;99776.30;1766139;81;25577;-56
2021/04/08 06:07:37;;;;;;;30.02;16.10;;;;;;;1.18;76.61;99773.39;1752549;81;25712;-60
2021/04/08 06:10:05;;;;;;;28.32;16.40;;;;;;;1.22;76.65;99775.79;1752259;81;25546;-56
2021/04/08 06:12:32;;;;;;;31.90;16.35;;;;;;;1.24;76.69;99785.68;1752334;81;25532;-56
2021/04/08 06:14:59;;;;;;;29.23;16.02;;;;;;;1.25;76.66;99787.27;1752249;81;25595;-57
2021/04/08 06:17:27;;;;;;;28.05;16.45;;;;;;;1.25;76.64;99788.60;1752262;81;26251;-57
2021/04/08 06:19:54;;;;;;;28.20;16.37;;;;;;;1.26;76.68;99788.88;1751953;81;25734;-56
2021/04/08 06:22:21;;;;;;;35.85;18.73;;;;;;;1.27;76.70;99787.02;1752705;81;25613;-53
2021/04/08 06:24:48;;;;;;;33.10;17.75;;;;;;;1.29;76.65;99794.20;1753499;81;25556;-58
2021/04/08 06:27:16;;;;;;;37.60;19.10;;;;;;;1.30;76.66;99792.63;1753059;81;25595;-57
2021/04/08 06:29:43;;;;;;;27.57;17.00;;;;;;;1.33;76.73;99793.16;1753610;81;25626;-56
2021/04/08 06:32:10;;;;;;;25.40;16.23;;;;;;;1.35;76.88;99799.84;1738457;82;25789;-57
2021/04/08 06:34:38;;;;;;;29.95;17.37;;;;;;;1.35;76.83;99800.38;1722612;83;25515;-57
2021/04/08 06:41:39;;;;;;;32.10;17.42;;;;;;;1.33;76.94;99806.48;1764253;80;26265;-57
2021/04/08 06:44:27;;;;;;;30.23;16.73;;;;;;;1.33;77.14;99808.64;1759424;80;26404;-57
2021/04/08 06:47:04;;;;;;;25.70;16.05;;;;;;;1.30;77.29;99819.27;1769573;80;26581;-57
2021/04/08 06:49:43;;;;;;;29.07;17.00;;;;;;;1.27;77.45;99822.44;1760944;80;25617;-57
2021/04/08 06:52:11;;;;;;;31.20;17.70;;;;;;;1.26;77.58;99819.53;1756400;80;25557;-56
2021/04/08 06:54:39;;;;;;;26.65;16.35;;;;;;;1.24;77.92;99824.83;1723865;82;25638;-57
2021/04/08 06:57:07;;;;;;;30.43;17.12;;;;;;;1.24;78.14;99832.31;1760920;81;25480;-57
2021/04/08 06:59:34;;;;;;;32.45;18.27;;;;;;;1.22;78.18;99828.28;1761140;80;25739;-57
2021/04/08 07:02:01;;;;;;;31.12;17.42;;;;;;;1.21;78.17;99829.33;1761118;81;25508;-57
2021/04/08 07:04:28;;;;;;;32.05;19.00;;;;;;;1.23;78.46;99832.02;1760869;81;25501;-55
2021/04/08 07:06:55;;;;;;;33.83;19.32;;;;;;;1.25;78.53;99835.77;1731278;81;25584;-56
2021/04/08 07:09:22;;;;;;;33.98;19.75;;;;;;;1.26;78.64;99841.34;1761107;80;25427;-56
2021/04/08 07:11:49;;;;;;;35.38;21.65;;;;;;;1.27;78.67;99852.30;1761043;80;26565;-55
2021/04/08 07:14:18;;;;;;;36.77;21.77;;;;;;;1.28;78.90;99849.37;1761034;81;25684;-56
2021/04/08 07:16:46;;;;;;;31.12;19.12;;;;;;;1.32;78.98;99854.98;1761141;81;25543;-56
2021/04/08 07:19:14;;;;;;;40.48;20.82;;;;;;;1.35;79.47;99858.47;1760839;81;25512;-56
2021/04/08 07:21:42;;;;;;;38.13;21.65;;;;;;;1.39;79.61;99856.09;1761099;80;25539;-57
2021/04/08 07:24:16;;;;;;;36.70;21.30;;;;;;;1.43;79.66;99854.50;1760978;81;28072;-57
2021/04/08 07:27:05;;;;;;;35.50;20.70;;;;;;;1.48;79.74;99864.68;1760840;81;25532;-57
2021/04/08 07:29:44;;;;;;;36.10;21.12;;;;;;;1.57;80.10;99866.86;1761241;81;25633;-57
2021/04/08 07:32:16;;;;;;;36.60;21.00;;;;;;;1.64;80.29;99872.75;1755019;81;25321;-57
2021/04/08 07:34:50;;;;;;;38.67;22.35;;;;;;;1.70;80.08;99879.70;1749842;82;25336;-56
2021/04/08 07:37:35;;;;;;;36.13;22.05;;;;;;;1.78;80.41;99881.87;1749806;81;25892;-56
2021/04/08 07:40:18;;;;;;;40.08;23.15;;;;;;;1.81;80.02;99878.69;1744744;81;25584;-56
2021/04/08 07:42:46;;;;;;;37.17;22.32;;;;;;;1.89;80.05;99887.24;1749900;81;25574;-57
2021/04/08 07:45:29;;;;;;;37.90;23.35;;;;;;;1.99;80.44;99891.28;1749695;82;25533;-57
2021/04/08 07:48:07;;;;;;;43.58;23.75;;;;;;;2.13;80.11;99897.75;1847681;76;34777;-56
2021/04/08 07:50:36;;;;;;;39.53;22.98;;;;;;;2.14;79.97;99899.33;1787459;78;25364;-58
2021/04/08 07:53:04;;;;;;;40.23;24.60;;;;;;;2.29;80.26;99905.25;1803228;78;25681;-57
2021/04/08 07:55:35;;;;;;;39.23;25.23;;;;;;;2.43;79.94;99901.55;1799361;78;25249;-56
2021/04/08 08:00:53;;;;;;;36.15;22.37;;;;;;;2.78;79.45;99921.37;1847944;76;34652;-56
2021/04/08 08:03:33;;;;;;;37.38;22.17;;;;;;;2.84;79.39;99916.28;1816071;78;25628;-57
2021/04/08 08:06:03;;;;;;;35.58;21.80;;;;;;;2.96;79.01;99914.68;1818624;78;25692;-57
2021/04/08 08:08:42;;;;;;;36.42;21.95;;;;;;;3.10;79.04;99923.78;1818469;78;25470;-59
2021/04/08 08:11:15;;;;;;;35.17;20.88;;;;;;;3.23;78.56;99925.09;1752346;81;30109;-56
2021/04/08 08:13:54;;;;;;;32.50;20.62;;;;;;;3.34;78.19;99932.05;1736563;80;25558;-60
2021/04/08 08:16:25;;;;;;;33.65;20.97;;;;;;;3.36;77.66;99933.91;1750813;81;25615;-57
2021/04/08 08:19:00;;;;;;;33.70;21.73;;;;;;;3.50;77.79;99940.04;1827023;76;34934;-56
2021/04/08 08:21:39;;;;;;;39.10;23.15;;;;;;;3.55;77.75;99943.50;1752511;81;25577;-57
2021/04/08 08:24:09;;;;;;;36.20;22.40;;;;;;;3.78;78.12;99938.66;1726031;83;25865;-57
2021/04/08 08:26:48;;;;;;;37.67;22.20;;;;;;;4.08;78.36;99948.97;1725522;83;26254;-54
2021/04/08 08:29:19;;;;;;;37.23;23.85;;;;;;;4.40;77.54;99951.23;1730572;81;25577;-56
2021/04/08 08:31:56;;;;;;;36.48;22.98;;;;;;;4.80;77.96;99956.63;1756034;81;25503;-56
2021/04/08 08:34:31;;;;;;;31.65;21.37;;;;;;;5.16;76.40;99946.97;1743700;81;25561;-56
2021/04/08 08:37:05;;;;;;;28.52;19.87;;;;;;;5.53;75.44;99953.07;1736347;81;28054;-57
2021/04/08 08:39:36;;;;;;;29.75;18.90;;;;;;;5.80;75.00;99955.77;1725575;83;25588;-57
2021/04/08 08:42:08;;;;;;;26.52;17.40;;;;;;;5.93;73.77;99961.80;1734189;81;26227;-58
2021/04/08 08:44:36;;;;;;;25.27;17.30;;;;;;;5.92;69.80;99962.08;1715547;81;25748;-57
2021/04/08 08:47:32;;;;;;;26.30;17.17;;;;;;;5.78;70.62;99961.96;1744336;81;25612;-57
2021/04/08 08:50:02;;;;;;;29.98;18.52;;;;;;;5.68;71.03;99967.44;1725746;83;25833;-57
2021/04/08 08:52:37;;;;;;;27.10;17.35;;;;;;;5.60;71.06;99974.20;1741441;81;26141;-55
2021/04/08 08:55:11;;;;;;;68.35;35.52;;;;;;;5.51;69.96;99981.28;1736394;81;25323;-57
2021/04/08 08:57:40;;;;;;;47.53;26.02;;;;;;;5.34;70.41;99989.19;1729754;81;25621;-57
2021/04/08 09:00:09;;;;;;;25.90;16.30;;;;;;;5.29;70.75;99991.91;1738231;81;25168;-56
2021/04/08 09:02:37;;;;;;;22.45;16.07;;;;;;;5.24;70.41;99991.44;1755879;81;25943;-56
2021/04/08 09:05:14;;;;;;;21.77;15.70;;;;;;;5.21;70.82;99989.83;1753592;81;25626;-55
2021/04/08 09:07:46;;;;;;;22.62;15.88;;;;;;;5.27;70.84;99995.97;1746769;81;25697;-55
2021/04/08 09:10:16;;;;;;;22.25;16.05;;;;;;;5.29;70.77;100000.52;1743340;81;25219;-54
2021/04/08 09:12:43;;;;;;;21.60;14.70;;;;;;;5.32;70.31;100002.64;1703530;82;25423;-57
2021/04/08 09:15:12;;;;;;;20.97;14.78;;;;;;;5.31;70.15;99999.69;1703115;82;25929;-55
2021/04/08 09:17:46;;;;;;;20.70;12.63;;;;;;;5.40;70.02;100006.85;1716398;80;25671;-56
2021/04/08 09:20:19;;;;;;;17.02;12.37;;;;;;;5.48;69.43;100004.09;1792357;79;25605;-56
2021/04/08 09:23:01;;;;;;;18.20;12.10;;;;;;;5.53;68.52;100004.59;1792350;80;25143;-55
2021/04/08 09:25:37;;;;;;;17.48;12.15;;;;;;;5.47;68.71;100006.53;1792399;79;25369;-55
2021/04/08 09:28:08;;;;;;;15.80;11.28;;;;;;;5.60;70.06;100016.61;1792339;80;25769;-55
2021/04/08 09:33:45;;;;;;;13.30;10.15;;;;;;;6.13;70.70;100011.00;1781399;80;25545;-57
2021/04/08 09:36:24;;;;;;;10.70;8.30;;;;;;;6.66;70.10;100012.25;1753006;81;25816;-54
2021/04/08 09:38:56;;;;;;;10.88;7.03;;;;;;;7.21;68.77;100014.41;1760611;81;25587;-56
2021/04/08 09:41:42;;;;;;;16.37;7.97;;;;;;;7.62;64.49;100017.77;1760386;81;25710;-55
2021/04/08 09:44:13;;;;;;;12.03;7.60;;;;;;;8.25;67.83;100016.11;1760417;81;25355;-57
2021/04/08 09:46:44;;;;;;;9.93;7.35;;;;;;;8.86;65.59;100018.89;1760316;81;25367;-58
2021/04/08 09:49:11;;;;;;;13.35;8.73;;;;;;;9.08;63.23;100024.08;1760836;80;25463;-57
2021/04/08 09:51:44;;;;;;;9.53;7.75;;;;;;;8.92;62.92;100024.96;1789093;80;25634;-57
2021/04/08 09:54:14;;;;;;;13.48;8.65;;;;;;;8.82;62.98;100026.54;1771307;80;25917;-56
2021/04/08 09:56:47;;;;;;;13.32;9.75;;;;;;;8.74;63.18;100026.16;1760482;81;25277;-57
2021/04/08 09:59:16;;;;;;;14.65;8.58;;;;;;;8.51;60.95;100033.93;1781156;80;25626;-57
2021/04/08 10:01:44;;;;;;;14.98;9.60;;;;;;;8.14;61.66;100036.52;1791998;80;32706;-57
2021/04/08 10:04:23;;;;;;;12.07;9.65;;;;;;;7.85;61.86;100040.83;1785542;79;25509;-57
2021/04/08 10:07:02;;;;;;;12.85;9.48;;;;;;;7.59;62.22;100044.48;1773721;80;26004;-57
2021/04/08 10:09:29;;;;;;;13.60;10.23;;;;;;;7.37;62.08;100041.89;1776166;80;25524;-56
2021/04/08 10:11:56;;;;;;;14.05;11.12;;;;;;;7.23;63.12;100047.74;1777877;79;25556;-56
2021/04/08 10:14:30;;;;;;;16.10;9.53;;;;;;;7.14;63.19;100052.98;1786828;79;25529;-56
2021/04/08 10:17:10;;;;;;;14.07;9.75;;;;;;;7.02;63.09;100051.29;1756319;80;25628;-57
2021/04/08 10:19:41;;;;;;;12.15;8.95;;;;;;;7.39;64.41;100053.16;1764208;79;25992;-56
2021/04/08 10:22:10;;;;;;;11.03;8.68;;;;;;;8.02;61.51;100047.78;1734648;81;25657;-56
2021/04/08 10:24:44;;;;;;;;;;;;;;;9.06;62.90;100051.89;1736180;82;25593;-55
2021/04/08 10:27:24;;;;;;;9.78;7.80;;;;;;;9.99;63.01;100071.52;1733584;82;25479;-56
2021/04/08 10:29:52;;;;;;;8.58;7.22;;;;;;;10.15;57.43;100061.66;1733674;82;26168;-55
2021/04/08 10:32:35;;;;;;;11.15;8.48;;;;;;;9.96;58.76;100070.81;1733565;82;25965;-55
2021/04/08 10:35:30;;;;;;;9.43;6.60;;;;;;;10.33;59.76;100074.17;1848809;76;34541;-55
2021/04/08 10:38:07;;;;;;;10.25;7.47;;;;;;;10.72;56.02;100070.39;1818432;78;25496;-56
2021/04/08 10:40:35;;;;;;;10.28;8.15;;;;;;;11.05;54.68;100079.43;1818625;78;25872;-57
2021/04/08 10:43:15;;;;;;;9.65;6.97;;;;;;;11.84;53.37;100085.05;1818478;78;25639;-56
2021/04/08 10:45:56;;;;;;;7.55;6.47;;;;;;;12.06;53.57;100084.06;1819233;78;25492;-56
2021/04/08 10:48:26;;;;;;;7.17;6.28;;;;;;;11.98;51.06;100085.45;1819061;78;25478;-57
2021/04/08 10:50:54;;;;;;;10.63;6.45;;;;;;;12.24;52.45;100090.78;1787390;78;25352;-56
2021/04/08 10:53:26;;;;;;;8.20;6.60;;;;;;;12.14;52.43;100094.66;1819389;78;25759;-56
2021/04/08 10:55:54;;;;;;;8.40;6.37;;;;;;;11.68;49.82;100096.14;1819259;78;25565;-56
2021/04/08 10:58:27;;;;;;;7.90;6.35;;;;;;;11.12;52.33;100101.44;1819479;78;25411;-57
2021/04/08 11:00:56;;;;;;;7.62;6.22;;;;;;;10.64;53.46;100104.41;1819510;77;25535;-57
2021/04/08 11:03:24;;;;;;;8.65;6.35;;;;;;;10.89;54.13;100107.52;1824519;77;25145;-55
2021/04/08 11:05:51;;;;;;;6.78;5.70;;;;;;;10.89;54.13;100107.52;1850367;77;25752;-57
2021/04/08 11:08:20;;;;;;;7.60;6.10;;;;;;;11.16;53.20;100111.29;1850583;77;25580;-57
2021/04/08 11:10:47;;;;;;;8.20;5.80;;;;;;;10.94;52.83;100188.55;1850797;77;25630;-56
2021/04/08 11:13:14;;;;;;;7.37;5.28;;;;;;;10.73;53.93;100156.65;1850626;77;25276;-56
2021/04/08 11:15:44;;;;;;;5.58;4.20;;;;;;;10.48;53.27;100124.90;1778713;80;25483;-57
2021/04/08 11:18:20;;;;;;;3.83;3.40;;;;;;;10.90;51.89;100111.83;1800197;79;25716;-57
2021/04/08 11:20:49;;;;;;;4.50;3.65;;;;;;;11.08;50.46;100116.13;1750184;80;25696;-56
2021/04/08 11:23:21;;;;;;;5.25;3.83;;;;;;;10.71;50.58;100116.13;1800126;79;25501;-57
2021/04/08 11:26:07;;;;;;;6.53;4.53;;;;;;;10.41;51.54;100124.78;1778639;80;25518;-57
2021/04/08 11:28:41;;;;;;;8.80;4.62;;;;;;;10.20;51.90;100124.50;1799635;79;25282;-56
2021/04/08 11:31:19;;;;;;;7.47;5.15;;;;;;;10.64;53.82;100121.45;1778806;80;26612;-56
2021/04/08 11:33:55;;;;;;;7.30;5.12;;;;;;;11.34;53.04;100121.59;1798467;79;25518;-57
2021/04/08 11:36:24;;;;;;;6.72;5.35;;;;;;;12.02;53.27;100115.66;1736024;82;25561;-56
2021/04/08 11:38:51;;;;;;;7.40;5.28;;;;;;;12.54;48.95;100124.73;1790884;80;25462;-57
2021/04/08 11:41:19;;;;;;;8.40;6.33;;;;;;;12.43;49.84;100112.89;1790858;80;25287;-56
2021/04/08 11:43:51;;;;;;;7.35;6.17;;;;;;;12.52;50.71;100111.50;1736302;82;25730;-57
2021/04/08 11:46:39;;;;;;;7.72;6.08;;;;;;;12.61;48.61;100118.23;1790319;80;25432;-55
2021/04/08 11:49:18;;;;;;;7.35;5.55;;;;;;;12.50;49.45;100119.17;1790401;80;25433;-57
2021/04/08 11:51:45;;;;;;;6.00;4.92;;;;;;;12.33;48.20;100127.59;1769352;80;25306;-57
2021/04/08 11:54:20;;;;;;;6.62;4.72;;;;;;;12.26;48.46;100119.17;1748756;79;25662;-57
2021/04/08 11:56:47;;;;;;;7.12;4.35;;;;;;;12.19;49.07;100131.63;1751450;81;25782;-57
2021/04/08 11:59:24;;;;;;;9.83;4.70;;;;;;;12.01;47.09;100127.61;1739075;80;25583;-57
2021/04/08 12:01:54;;;;;;;7.40;5.12;;;;;;;11.57;46.57;100124.92;1736044;82;25455;-57
2021/04/08 12:04:31;;;;;;;8.00;4.80;;;;;;;11.28;48.66;100131.53;1735912;82;25456;-57
2021/04/08 12:07:06;;;;;;;5.90;5.25;;;;;;;11.36;49.35;100134.81;1744663;81;25552;-57
2021/04/08 12:09:43;;;;;;;7.03;4.55;;;;;;;11.39;48.43;100136.86;1755256;81;25698;-57
2021/04/08 12:12:11;;;;;;;7.00;4.72;;;;;;;11.59;47.69;100144.38;1766257;81;25597;-56
2021/04/08 12:15:04;;;;;;;7.77;5.03;;;;;;;11.35;48.09;100147.53;1766577;81;25534;-56
2021/04/08 12:17:33;;;;;;;5.45;4.40;;;;;;;11.11;48.53;100175.05;1766136;81;25642;-57
2021/04/08 12:20:21;;;;;;;4.85;3.47;;;;;;;10.88;49.18;100178.43;1766289;81;25610;-54
2021/04/08 12:22:50;;;;;;;8.43;5.65;;;;;;;10.31;50.23;100214.23;1760669;79;25811;-56
2021/04/08 12:25:21;;;;;;;8.28;6.50;;;;;;;9.65;51.42;100226.05;1798140;79;25619;-56
2021/04/08 12:27:52;;;;;;;6.95;5.08;;;;;;;9.00;51.90;100225.79;1754594;79;25527;-57
2021/04/08 12:30:20;;;;;;;5.15;4.55;;;;;;;8.36;52.63;100235.26;1734836;80;25805;-58
2021/04/08 12:32:51;;;;;;;5.03;4.15;;;;;;;7.72;53.46;100248.34;1772128;79;25653;-57
2021/04/08 12:35:17;;;;;;;5.67;4.85;;;;;;;7.16;54.15;100251.20;1789572;80;25780;-58
2021/04/08 12:37:44;;;;;;;10.23;5.80;;;;;;;6.68;55.15;100251.18;1776139;80;25418;-55
2021/04/08 12:40:12;;;;;;;8.50;5.28;;;;;;;6.26;56.22;100256.64;1752672;79;25663;-57
2021/04/08 12:42:39;;;;;;;8.10;4.97;;;;;;;5.97;56.82;100256.03;1773728;80;25548;-53
2021/04/08 12:45:07;;;;;;;6.78;4.45;;;;;;;5.69;58.12;100250.28;1751724;80;25151;-56
2021/04/08 12:47:33;;;;;;;6.45;4.35;;;;;;;5.48;59.19;100254.92;1750979;81;25707;-57
2021/04/08 12:50:03;;;;;;;7.75;5.30;;;;;;;5.24;59.55;100257.45;1751227;81;25757;-57
2021/04/08 12:52:29;;;;;;;11.03;6.30;;;;;;;5.02;60.79;100269.33;1751423;81;25319;-57
2021/04/08 12:54:56;;;;;;;13.08;6.08;;;;;;;4.81;61.45;100279.27;1750932;81;25589;-57
2021/04/08 12:57:23;;;;;;;9.05;4.67;;;;;;;4.61;61.94;100284.66;1751240;81;25480;-57
2021/04/08 12:59:49;;;;;;;6.92;4.00;;;;;;;4.43;62.42;100283.34;1751551;81;27998;-58
2021/04/08 13:02:17;;;;;;;14.30;6.20;;;;;;;4.28;63.11;100271.53;1750978;81;25670;-58
2021/04/08 13:04:44;;;;;;;12.00;7.40;;;;;;;4.17;63.62;100261.08;1751208;81;25329;-56
2021/04/08 13:07:11;;;;;;;12.45;8.60;;;;;;;4.07;64.23;100253.84;1750859;81;25551;-57
2021/04/08 13:09:37;;;;;;;9.88;5.75;;;;;;;4.08;64.85;100256.80;1751151;81;25707;-57
2021/04/08 13:12:05;;;;;;;9.85;5.12;;;;;;;4.33;67.02;100253.88;1738043;81;25732;-58
2021/04/08 13:14:31;;;;;;;8.28;4.75;;;;;;;4.85;68.60;100260.77;1766263;81;25402;-58
2021/04/08 13:16:58;;;;;;;6.87;4.33;;;;;;;5.58;69.80;100255.42;1765989;81;25526;-57
2021/04/08 13:19:24;;;;;;;5.67;3.30;;;;;;;6.50;70.04;100263.42;1766324;81;25573;-58
2021/04/08 13:21:51;;;;;;;4.90;3.67;;;;;;;7.25;68.84;100268.33;1766355;81;25432;-58
2021/04/08 13:24:18;;;;;;;7.28;5.03;;;;;;;7.60;67.31;100269.52;1742825;81;25768;-58
2021/04/08 13:26:45;;;;;;;14.45;8.10;;;;;;;7.73;66.40;100282.27;1735786;82;25367;-57
2021/04/08 13:29:11;;;;;;;12.73;6.75;;;;;;;7.80;65.30;100288.64;1735840;82;25422;-57
2021/04/08 13:31:38;;;;;;;18.32;9.20;;;;;;;7.74;64.70;100291.14;1735567;82;25463;-58
2021/04/08 13:34:05;;;;;;;19.50;9.80;;;;;;;7.62;64.16;100296.94;1738125;81;25626;-58
2021/04/08 13:36:31;;;;;;;15.85;9.08;;;;;;;7.43;64.01;100310.36;1752978;81;25720;-58
2021/04/08 13:38:58;;;;;;;7.33;5.28;;;;;;;7.23;64.03;100315.42;1752456;81;25291;-58
2021/04/08 13:41:24;;;;;;;10.08;6.17;;;;;;;6.95;63.68;100317.05;1768449;80;25652;-58
2021/04/08 13:43:54;;;;;;;19.73;7.62;;;;;;;6.64;63.81;100318.66;1768067;80;25588;-57
2021/04/08 13:46:21;;;;;;;24.75;7.30;;;;;;;6.43;64.16;100318.03;1774380;80;25293;-55
2021/04/08 13:48:47;;;;;;;23.73;7.15;;;;;;;6.24;64.46;100312.53;1770536;80;25814;-59
2021/04/08 13:51:14;;;;;;;21.12;6.58;;;;;;;6.03;64.37;100303.27;1769370;80;26165;-58
2021/04/08 13:53:40;;;;;;;25.37;8.13;;;;;;;5.87;64.90;100307.87;1767031;80;25605;-58
2021/04/08 13:56:07;;;;;;;46.35;9.48;;;;;;;5.73;65.30;100304.99;1766916;80;25603;-58
2021/04/08 13:58:33;;;;;;;9.95;6.37;;;;;;;5.65;65.95;100302.88;1753721;80;25284;-57
2021/04/08 14:01:00;;;;;;;11.30;6.20;;;;;;;5.62;66.34;100302.11;1752144;80;25793;-57
2021/04/08 14:03:27;;;;;;;6.85;5.70;;;;;;;5.66;66.70;100296.45;1766938;80;25559;-57
2021/04/08 14:05:53;;;;;;;6.70;5.90;;;;;;;5.72;67.22;100295.36;1766984;80;25320;-57
2021/04/08 14:08:19;;;;;;;9.65;6.03;;;;;;;5.78;67.47;100299.59;1764400;80;25616;-57
2021/04/08 14:10:46;;;;;;;8.15;5.50;;;;;;;5.78;67.35;100294.23;1763932;80;25631;-59
2021/04/08 14:13:13;;;;;;;7.80;5.47;;;;;;;5.78;67.46;100302.83;1770843;80;25797;-60
2021/04/08 14:15:43;;;;;;;8.75;6.03;;;;;;;5.82;67.90;100314.61;1768688;80;25633;-58
2021/04/08 14:18:10;;;;;;;9.78;5.90;;;;;;;5.90;68.33;100315.37;1765930;80;25630;-58
2021/04/08 14:20:39;;;;;;;9.75;5.72;;;;;;;6.07;69.19;100311.56;1769716;80;25683;-58
2021/04/08 14:23:06;;;;;;;7.80;6.28;;;;;;;6.50;70.14;100315.30;1768319;80;25545;-57
2021/04/08 14:25:33;;;;;;;7.65;6.62;;;;;;;7.00;69.75;100315.13;1770346;80;26018;-58
2021/04/08 14:28:01;;;;;;;10.93;6.67;;;;;;;7.47;69.58;100324.31;1780607;80;25458;-58
2021/04/08 14:30:28;;;;;;;9.88;6.97;;;;;;;7.87;68.36;100322.74;1768714;80;25963;-58
2021/04/08 14:32:54;;;;;;;11.93;6.90;;;;;;;8.15;68.48;100327.72;1766288;80;25555;-59
2021/04/08 14:35:21;;;;;;;8.93;6.22;;;;;;;8.37;66.65;100326.34;1756958;80;25747;-59
2021/04/08 14:37:48;;;;;;;9.80;6.45;;;;;;;8.34;66.29;100333.13;1746639;81;25748;-58
2021/04/08 14:40:16;;;;;;;11.22;8.10;;;;;;;8.53;66.56;100330.44;1746055;81;25656;-59
2021/04/08 14:42:42;;;;;;;13.40;8.08;;;;;;;8.84;66.78;100331.83;1733470;82;25363;-57
2021/04/08 14:45:11;;;;;;;14.95;9.28;;;;;;;9.08;66.34;100328.98;1741399;81;25561;-57
2021/04/08 14:47:38;;;;;;;15.83;9.70;;;;;;;9.16;65.16;100331.78;1746987;81;25542;-58
2021/04/08 14:50:08;;;;;;;14.50;9.03;;;;;;;9.28;65.53;100339.39;1733646;82;26692;-58
2021/04/08 14:52:35;;;;;;;14.78;9.73;;;;;;;9.41;64.50;100350.48;1733260;82;25294;-56
2021/04/08 14:55:02;;;;;;;13.28;9.93;;;;;;;9.38;63.23;100342.98;1733519;82;25338;-59
2021/04/08 14:57:29;;;;;;;14.98;10.55;;;;;;;9.26;63.67;100344.83;1733519;82;25508;-59
2021/04/08 14:59:56;;;;;;;13.38;8.85;;;;;;;9.25;63.27;100345.38;1733269;82;25406;-58
2021/04/08 15:02:24;;;;;;;13.45;9.58;;;;;;;9.13;62.28;100341.81;1733449;82;25716;-59
2021/04/08 15:04:50;;;;;;;12.95;8.85;;;;;;;9.04;62.70;100334.17;1733380;82;25263;-57
2021/04/08 15:07:18;;;;;;;12.15;8.35;;;;;;;8.89;62.62;100338.48;1733246;82;25302;-56
2021/04/08 15:09:44;;;;;;;12.25;8.95;;;;;;;8.89;63.64;100344.67;1733437;82;25450;-57
2021/04/08 15:12:13;;;;;;;12.95;8.95;;;;;;;8.93;63.47;100348.38;1745398;81;25256;-57
2021/04/08 15:14:41;;;;;;;14.45;8.55;;;;;;;8.93;63.80;100348.38;1762515;81;25765;-57
2021/04/08 15:17:10;;;;;;;12.65;9.10;;;;;;;8.86;62.70;100344.47;1762312;81;25489;-57
2021/04/08 15:19:38;;;;;;;18.62;9.68;;;;;;;8.75;63.16;100347.86;1730886;81;25707;-58
2021/04/08 15:22:07;;;;;;;12.95;9.05;;;;;;;8.58;62.94;100346.53;1762561;81;25420;-59
2021/04/08 15:24:35;;;;;;;;;;;;;;;8.49;63.55;100346.92;1765722;81;25653;-55
2021/04/08 15:27:04;;;;;;;11.70;8.95;;;;;;;8.37;63.73;100350.59;1762964;81;25709;-58
2021/04/08 15:29:31;;;;;;;13.70;10.45;;;;;;;8.27;64.10;100348.84;1763606;81;25253;-57
2021/04/08 15:31:59;;;;;;;13.70;10.18;;;;;;;8.20;64.29;100349.20;1773949;79;25646;-58
2021/04/08 15:34:26;;;;;;;14.20;8.85;;;;;;;8.08;63.65;100358.83;1726232;81;25500;-57
2021/04/08 15:36:53;;;;;;;13.78;8.28;;;;;;;7.96;64.07;100356.56;1727413;83;25460;-57
2021/04/08 15:39:19;;;;;;;11.93;7.53;;;;;;;7.95;64.49;100355.77;1742851;82;25792;-57
2021/04/08 15:41:47;;;;;;;8.78;7.65;;;;;;;7.94;64.10;100369.52;1742673;82;25420;-56
2021/04/08 15:44:14;;;;;;;9.68;7.22;;;;;;;7.89;62.77;100372.28;1742447;82;25439;-56
2021/04/08 15:46:41;;;;;;;11.95;8.35;;;;;;;7.82;62.92;100378.80;1742868;82;25081;-57
2021/04/08 15:49:08;;;;;;;14.28;8.93;;;;;;;7.77;61.99;100374.03;1728913;82;25427;-57
2021/04/08 15:51:35;;;;;;;13.65;9.03;;;;;;;7.74;62.19;100382.68;1736542;82;25796;-57
2021/04/08 15:54:02;;;;;;;13.18;8.78;;;;;;;7.70;61.99;100385.16;1762432;81;25428;-57
2021/04/08 15:56:28;;;;;;;11.95;8.08;;;;;;;7.58;61.61;100384.76;1759080;81;25358;-57
2021/04/08 15:58:55;;;;;;;11.15;8.08;;;;;;;7.46;61.17;100391.33;1766915;81;25340;-56
2021/04/08 16:01:22;;;;;;;11.20;8.33;;;;;;;7.32;61.01;100385.03;1759108;81;25460;-57
2021/04/08 16:03:49;;;;;;;11.53;7.45;;;;;;;7.24;61.05;100389.68;1767144;81;25942;-57
2021/04/08 16:06:16;;;;;;;11.88;7.47;;;;;;;7.13;61.17;100389.51;1758766;81;25471;-56
2021/04/08 16:08:44;;;;;;;9.25;6.28;;;;;;;7.05;61.30;100393.63;1767204;81;25425;-57
2021/04/08 16:11:11;;;;;;;8.05;6.75;;;;;;;6.99;61.08;100394.74;1767173;81;25336;-58
2021/04/08 16:13:38;;;;;;;8.75;6.60;;;;;;;6.96;61.70;100396.09;1758803;81;25439;-58
2021/04/08 16:16:06;;;;;;;8.10;6.12;;;;;;;6.92;61.58;100404.48;1765339;81;25797;-57
2021/04/08 16:18:33;;;;;;;7.67;5.33;;;;;;;6.89;61.37;100409.06;1742214;81;25342;-58
2021/04/08 16:20:59;;;;;;;8.55;6.08;;;;;;;6.86;61.48;100417.69;1766872;81;25537;-57
2021/04/08 16:23:27;;;;;;;9.95;6.55;;;;;;;6.81;61.04;100413.70;1767034;81;26007;-58
2021/04/08 16:25:53;;;;;;;10.00;6.28;;;;;;;6.75;60.75;100412.15;1737627;81;25481;-57
2021/04/08 16:28:23;;;;;;;10.82;6.17;;;;;;;6.68;60.43;100429.93;1742146;80;27988;-58
2021/04/08 16:30:50;;;;;;;10.03;5.77;;;;;;;6.64;60.68;100428.87;1771152;78;26509;-58
2021/04/08 16:33:16;;;;;;;10.72;5.70;;;;;;;6.62;59.87;100433.73;1742790;82;25326;-57
2021/04/08 16:35:43;;;;;;;11.55;5.97;;;;;;;6.60;59.75;100442.61;1752745;80;25466;-57
2021/04/08 16:38:10;;;;;;;7.92;5.62;;;;;;;6.57;59.98;100439.92;1729013;82;25439;-57
2021/04/08 16:40:36;;;;;;;9.50;5.40;;;;;;;6.56;60.18;100437.00;1762415;80;28083;-59
2021/04/08 16:43:04;;;;;;;8.03;4.72;;;;;;;6.50;59.86;100440.27;1772148;79;25468;-59
2021/04/08 16:45:31;;;;;;;9.78;5.70;;;;;;;6.45;59.80;100444.33;1750097;80;25637;-57
2021/04/08 16:47:58;;;;;;;9.53;6.62;;;;;;;6.40;59.97;100441.64;1759360;79;25608;-59
2021/04/08 16:50:25;;;;;;;13.25;8.00;;;;;;;6.34;59.58;100455.64;1757713;80;25615;-59
2021/04/08 16:52:52;;;;;;;12.80;7.58;;;;;;;6.29;59.77;100453.53;1770635;80;25846;-56
2021/04/08 16:55:20;;;;;;;12.15;6.92;;;;;;;6.21;59.75;100452.21;1778327;80;25636;-56
2021/04/08 16:57:46;;;;;;;9.43;5.67;;;;;;;6.15;60.09;100458.16;1781551;80;25519;-57
2021/04/08 17:00:15;;;;;;;10.40;5.90;;;;;;;6.09;59.82;100466.50;1768509;80;25501;-56
2021/04/08 17:02:42;;;;;;;12.98;5.97;;;;;;;6.03;59.84;100471.09;1761004;81;25513;-57
2021/04/08 17:05:11;;;;;;;12.98;6.30;;;;;;;5.96;59.87;100474.62;1760892;81;25798;-57
2021/04/08 17:07:38;;;;;;;10.48;6.65;;;;;;;5.89;60.08;100480.76;1760680;80;26259;-57
2021/04/08 17:10:07;;;;;;;9.38;6.08;;;;;;;5.82;60.23;100481.05;1760912;80;25332;-55
2021/04/08 17:12:35;;;;;;;8.85;5.85;;;;;;;5.75;60.24;100482.66;1813624;78;25446;-57
2021/04/08 17:15:03;;;;;;;9.08;5.90;;;;;;;5.67;60.32;100492.64;1819083;78;25367;-57
2021/04/08 17:17:30;;;;;;;9.20;5.50;;;;;;;5.60;60.50;100488.06;1765698;80;26238;-57
2021/04/08 17:19:57;;;;;;;10.95;6.10;;;;;;;5.53;60.52;100500.41;1792125;80;25488;-57